createdAt,value
2023-04-10T00:02:00.533Z,7.58
2023-04-10T00:04:28.565Z,7.58
2023-04-10T00:06:55.386Z,7.59
2023-04-10T00:09:21.759Z,7.60
2023-04-10T00:11:48.179Z,7.56
2023-04-10T00:14:14.541Z,7.55
2023-04-10T00:16:41.133Z,7.51
2023-04-10T00:19:08.087Z,7.49
2023-04-10T00:21:34.521Z,7.45
2023-04-10T00:24:01.053Z,7.40
2023-04-10T00:26:27.465Z,7.38
2023-04-10T00:28:53.820Z,7.34
2023-04-10T00:31:20.352Z,7.33
2023-04-10T00:33:46.962Z,7.31
2023-04-10T00:36:13.456Z,7.31
2023-04-10T00:38:40.056Z,7.29
2023-04-10T00:41:06.862Z,7.27
2023-04-10T00:43:33.271Z,7.22
2023-04-10T00:45:59.806Z,7.18
2023-04-10T00:48:26.641Z,7.13
2023-04-10T00:50:53.171Z,7.11
2023-04-10T00:53:19.724Z,7.10
2023-04-10T00:55:47.206Z,7.09
2023-04-10T00:58:14.609Z,7.06
2023-04-10T01:00:41.788Z,7.04
2023-04-10T01:03:09.713Z,7.06
2023-04-10T01:05:47.572Z,7.06
2023-04-10T01:08:33.902Z,7.06
2023-04-10T01:11:34.490Z,7.08
2023-04-10T01:14:26.006Z,7.10
2023-04-10T01:17:03.981Z,7.10
2023-04-10T01:20:00.440Z,7.08
2023-04-10T01:22:49.388Z,7.08
2023-04-10T01:25:21.827Z,7.08
2023-04-10T01:28:02.446Z,7.09
2023-04-10T01:30:31.662Z,7.09
2023-04-10T01:33:01.398Z,7.07
2023-04-10T01:35:30.488Z,7.05
2023-04-10T01:37:59.460Z,7.01
2023-04-10T01:40:27.200Z,7.01
2023-04-10T01:42:56.761Z,6.95
2023-04-10T01:45:28.921Z,6.98
2023-04-10T01:47:56.374Z,7.02
2023-04-10T01:50:24.428Z,7.11
2023-04-10T01:52:54.696Z,7.19
2023-04-10T01:55:21.973Z,7.22
2023-04-10T01:57:49.097Z,7.34
2023-04-10T02:00:16.744Z,7.35
2023-04-10T02:02:43.552Z,7.34
2023-04-10T02:05:13.528Z,7.37
2023-04-10T02:07:49.979Z,7.40
2023-04-10T02:10:22.541Z,7.45
2023-04-10T02:12:53.956Z,7.44
2023-04-10T02:15:22.556Z,7.44
2023-04-10T02:17:51.365Z,7.48
2023-04-10T02:20:18.611Z,7.46
2023-04-10T02:22:45.413Z,7.42
2023-04-10T02:25:11.961Z,7.42
2023-04-10T02:27:39.718Z,7.45
2023-04-10T02:30:07.075Z,7.46
2023-04-10T02:32:33.646Z,7.48
2023-04-10T02:35:01.776Z,7.49
2023-04-10T02:37:28.251Z,7.49
2023-04-10T02:39:55.707Z,7.54
2023-04-10T02:42:22.422Z,7.51
2023-04-10T02:44:48.969Z,7.48
2023-04-10T02:47:16.216Z,7.44
2023-04-10T02:49:42.700Z,7.40
2023-04-10T02:52:09.084Z,7.42
2023-04-10T02:54:35.697Z,7.41
2023-04-10T02:57:02.401Z,7.38
2023-04-10T02:59:28.824Z,7.40
2023-04-10T03:01:55.329Z,7.34
2023-04-10T03:04:21.877Z,7.37
2023-04-10T03:06:48.758Z,7.33
2023-04-10T03:09:15.270Z,7.32
2023-04-10T03:11:41.715Z,7.30
2023-04-10T03:14:09.717Z,7.28
2023-04-10T03:16:36.431Z,7.25
2023-04-10T03:19:03.151Z,7.23
2023-04-10T03:21:29.998Z,7.22
2023-04-10T03:23:56.342Z,7.23
2023-04-10T03:26:24.100Z,7.21
2023-04-10T03:28:50.841Z,7.16
2023-04-10T03:31:17.294Z,7.16
2023-04-10T03:33:43.753Z,7.14
2023-04-10T03:36:11.419Z,7.11
2023-04-10T03:38:38.021Z,7.08
2023-04-10T03:41:04.648Z,7.06
2023-04-10T03:43:31.464Z,7.03
2023-04-10T03:45:58.196Z,7.02
2023-04-10T03:48:28.060Z,7.02
2023-04-10T03:50:57.982Z,7.02
2023-04-10T03:53:24.685Z,6.99
2023-04-10T03:55:52.549Z,6.96
2023-04-10T03:58:19.247Z,6.90
2023-04-10T04:00:46.578Z,6.89
2023-04-10T04:03:13.398Z,6.86
2023-04-10T04:05:40.145Z,6.87
2023-04-10T04:08:06.870Z,6.86
2023-04-10T04:10:33.473Z,6.84
2023-04-10T04:12:59.902Z,6.79
2023-04-10T04:15:26.313Z,6.76
2023-04-10T04:17:52.825Z,6.71
2023-04-10T04:20:19.355Z,6.68
2023-04-10T04:22:46.694Z,6.65
2023-04-10T04:25:13.084Z,6.64
2023-04-10T04:27:39.409Z,6.63
2023-04-10T04:30:06.711Z,6.62
2023-04-10T04:32:33.263Z,6.62
2023-04-10T04:34:59.714Z,6.60
2023-04-10T04:37:26.117Z,6.61
2023-04-10T04:39:52.496Z,6.62
2023-04-10T04:42:18.865Z,6.63
2023-04-10T04:44:45.391Z,6.64
2023-04-10T04:47:11.787Z,6.62
2023-04-10T04:49:38.199Z,6.60
2023-04-10T04:52:04.798Z,6.59
2023-04-10T04:54:31.152Z,6.58
2023-04-10T04:56:57.720Z,6.55
2023-04-10T04:59:24.194Z,6.53
2023-04-10T05:01:50.709Z,6.53
2023-04-10T05:04:17.334Z,6.53
2023-04-10T05:06:43.781Z,6.53
2023-04-10T05:09:10.486Z,6.50
2023-04-10T05:11:36.862Z,6.51
2023-04-10T05:14:03.315Z,6.50
2023-04-10T05:16:29.730Z,6.50
2023-04-10T05:18:56.884Z,6.49
2023-04-10T05:21:23.767Z,6.51
2023-04-10T05:23:50.559Z,6.54
2023-04-10T05:26:16.936Z,6.54
2023-04-10T05:28:43.378Z,6.57
2023-04-10T05:31:09.808Z,6.61
2023-04-10T05:33:36.194Z,6.63
2023-04-10T05:36:02.769Z,6.69
2023-04-10T05:38:29.191Z,6.75
2023-04-10T05:40:55.963Z,6.81
2023-04-10T05:43:22.549Z,6.85
2023-04-10T05:45:48.902Z,6.91
2023-04-10T05:48:15.264Z,6.95
2023-04-10T05:50:41.665Z,6.99
2023-04-10T05:53:13.455Z,7.02
2023-04-10T05:55:40.023Z,7.05
2023-04-10T05:58:06.427Z,7.10
2023-04-10T06:00:32.835Z,7.13
2023-04-10T06:02:59.386Z,7.19
2023-04-10T06:05:26.162Z,7.24
2023-04-10T06:07:52.625Z,7.27
2023-04-10T06:10:19.088Z,7.34
2023-04-10T06:12:45.620Z,7.42
2023-04-10T06:15:12.046Z,7.47
2023-04-10T06:17:43.595Z,7.53
2023-04-10T06:20:10.472Z,7.60
2023-04-10T06:22:36.849Z,7.64
2023-04-10T06:25:03.330Z,7.72
2023-04-10T06:27:29.864Z,7.77
2023-04-10T06:29:56.532Z,7.83
2023-04-10T06:32:22.935Z,7.87
2023-04-10T06:34:49.358Z,7.94
2023-04-10T06:37:15.874Z,8.01
2023-04-10T06:39:42.313Z,8.07
2023-04-10T06:42:08.767Z,8.14
2023-04-10T06:44:35.300Z,8.23
2023-04-10T06:47:01.765Z,8.31
2023-04-10T06:49:28.253Z,8.39
2023-04-10T06:51:54.852Z,8.45
2023-04-10T06:54:21.281Z,8.54
2023-04-10T06:56:47.756Z,8.63
2023-04-10T06:59:14.170Z,8.71
2023-04-10T07:01:40.711Z,8.79
2023-04-10T07:04:07.170Z,8.86
2023-04-10T07:06:33.587Z,8.96
2023-04-10T07:08:59.991Z,9.04
2023-04-10T07:11:26.407Z,9.15
2023-04-10T07:13:57.941Z,9.25
2023-04-10T07:16:24.937Z,9.37
2023-04-10T07:18:51.456Z,9.48
2023-04-10T07:21:18.034Z,9.58
2023-04-10T07:23:44.455Z,9.69
2023-04-10T07:26:11.054Z,9.81
2023-04-10T07:28:38.848Z,9.92
2023-04-10T07:31:06.311Z,10.03
2023-04-10T07:33:32.763Z,10.13
2023-04-10T07:35:59.284Z,10.20
2023-04-10T07:38:25.667Z,10.38
2023-04-10T07:40:59.221Z,10.53
2023-04-10T07:43:25.970Z,10.65
2023-04-10T07:45:52.897Z,10.79
2023-04-10T07:48:19.443Z,11.03
2023-04-10T07:50:46.549Z,11.19
2023-04-10T07:53:13.043Z,11.46
2023-04-10T07:55:40.725Z,11.70
2023-04-10T07:58:07.271Z,11.81
2023-04-10T08:00:33.867Z,11.95
2023-04-10T08:03:01.018Z,11.93
2023-04-10T08:05:28.031Z,11.85
2023-04-10T08:07:54.623Z,11.71
2023-04-10T08:10:21.022Z,11.63
2023-04-10T08:12:47.694Z,11.51
2023-04-10T08:15:14.149Z,11.45
2023-04-10T08:17:40.544Z,11.42
2023-04-10T08:20:07.883Z,11.46
2023-04-10T08:22:34.284Z,11.51
2023-04-10T08:25:00.709Z,11.64
2023-04-10T08:27:28.430Z,11.77
2023-04-10T08:29:54.866Z,11.91
2023-04-10T08:32:21.447Z,12.11
2023-04-10T08:34:49.750Z,12.30
2023-04-10T08:37:16.374Z,12.32
2023-04-10T08:39:42.800Z,12.22
2023-04-10T08:42:09.234Z,12.21
2023-04-10T08:44:37.153Z,12.22
2023-04-10T08:47:04.973Z,12.27
2023-04-10T08:49:46.517Z,12.21
2023-04-10T08:52:20.323Z,12.18
2023-04-10T08:54:50.730Z,12.12
2023-04-10T08:57:18.609Z,12.03
2023-04-10T08:59:45.224Z,12.00
2023-04-10T09:02:11.698Z,11.95
2023-04-10T09:04:38.412Z,12.02
2023-04-10T09:07:04.934Z,12.10
2023-04-10T09:09:33.158Z,12.11
2023-04-10T09:12:01.698Z,12.09
2023-04-10T09:14:35.739Z,12.13
2023-04-10T09:17:28.486Z,12.14
2023-04-10T09:19:56.124Z,12.18
2023-04-10T09:22:33.624Z,12.12
2023-04-10T09:25:01.224Z,12.12
2023-04-10T09:27:35.904Z,12.11
2023-04-10T09:30:03.525Z,12.14
2023-04-10T09:32:44.236Z,12.18
2023-04-10T09:35:12.802Z,12.20
2023-04-10T09:37:43.220Z,12.24
2023-04-10T09:40:25.462Z,12.27
2023-04-10T09:42:53.113Z,12.29
2023-04-10T09:45:20.568Z,12.32
2023-04-10T09:48:08.566Z,12.43
2023-04-10T09:50:40.983Z,12.53
2023-04-10T09:53:19.953Z,12.61
2023-04-10T09:55:50.281Z,12.68
2023-04-10T09:58:18.811Z,12.75
2023-04-10T10:00:48.626Z,12.90
2023-04-10T10:03:17.387Z,12.96
2023-04-10T10:05:46.511Z,12.89
2023-04-10T10:08:14.265Z,12.95
2023-04-10T10:10:46.841Z,13.06
2023-04-10T10:13:41.645Z,13.21
2023-04-10T10:16:20.502Z,13.26
2023-04-10T10:19:08.642Z,13.36
2023-04-10T10:21:36.613Z,13.46
2023-04-10T10:24:07.281Z,13.46
2023-04-10T10:26:35.533Z,13.50
2023-04-10T10:29:10.579Z,13.53
2023-04-10T10:31:38.050Z,13.61
2023-04-10T10:34:07.520Z,13.73
2023-04-10T10:36:37.191Z,13.85
2023-04-10T10:39:12.674Z,13.95
2023-04-10T10:41:48.973Z,14.07
2023-04-10T10:44:44.590Z,14.20
2023-04-10T10:47:30.941Z,14.26
2023-04-10T10:49:58.595Z,14.37
2023-04-10T10:52:52.769Z,14.37
2023-04-10T10:55:21.932Z,14.42
2023-04-10T10:57:52.016Z,14.62
2023-04-10T11:00:20.426Z,14.77
2023-04-10T11:03:10.694Z,15.13
2023-04-10T11:06:03.962Z,15.32
2023-04-10T11:08:33.490Z,15.49
2023-04-10T11:11:04.699Z,15.62
2023-04-10T11:13:35.789Z,15.75
2023-04-10T11:16:03.589Z,15.84
2023-04-10T11:18:45.486Z,15.99
2023-04-10T11:21:12.863Z,15.93
2023-04-10T11:23:50.318Z,15.82
2023-04-10T11:26:41.115Z,15.70
2023-04-10T11:29:19.579Z,15.72
2023-04-10T11:32:00.541Z,15.68
2023-04-10T11:34:27.601Z,15.69
2023-04-10T11:36:54.305Z,15.75
2023-04-10T11:39:22.274Z,15.86
2023-04-10T11:41:50.552Z,15.82
2023-04-10T11:44:39.480Z,15.97
2023-04-10T11:47:06.613Z,16.08
2023-04-10T11:49:34.545Z,16.12
2023-04-10T11:52:01.293Z,16.13
2023-04-10T11:54:29.008Z,16.23
2023-04-10T11:57:06.429Z,16.18
2023-04-10T11:59:34.196Z,16.15
2023-04-10T12:02:16.944Z,16.16
2023-04-10T12:04:44.483Z,16.36
2023-04-10T12:07:11.128Z,16.58
2023-04-10T12:09:37.590Z,16.74
2023-04-10T12:12:08.299Z,16.69
2023-04-10T12:14:38.200Z,16.91
2023-04-10T12:17:06.533Z,16.90
2023-04-10T12:19:34.090Z,16.78
2023-04-10T12:22:04.144Z,16.59
2023-04-10T12:24:47.592Z,16.51
2023-04-10T12:27:26.524Z,16.52
2023-04-10T12:29:55.266Z,16.38
2023-04-10T12:32:22.614Z,16.34
2023-04-10T12:34:59.274Z,16.31
2023-04-10T12:37:46.527Z,16.35
2023-04-10T12:40:13.863Z,16.43
2023-04-10T12:42:41.987Z,16.30
2023-04-10T12:45:10.016Z,16.22
2023-04-10T12:47:52.149Z,16.21
2023-04-10T12:50:20.870Z,16.14
2023-04-10T12:53:03.011Z,16.08
2023-04-10T12:55:29.635Z,16.02
2023-04-10T12:57:56.966Z,15.86
2023-04-10T13:00:24.048Z,15.77
2023-04-10T13:02:50.620Z,15.66
2023-04-10T13:05:17.175Z,15.59
2023-04-10T13:07:43.712Z,15.51
2023-04-10T13:10:10.284Z,15.48
2023-04-10T13:12:37.984Z,15.44
2023-04-10T13:15:04.956Z,15.45
2023-04-10T13:17:31.409Z,15.44
2023-04-10T13:19:57.911Z,15.43
2023-04-10T13:22:24.318Z,15.40
2023-04-10T13:24:50.840Z,15.42
2023-04-10T13:27:17.244Z,15.41
2023-04-10T13:29:43.828Z,15.42
2023-04-10T13:32:10.716Z,15.49
2023-04-10T13:34:37.276Z,15.56
2023-04-10T13:37:03.899Z,15.56
2023-04-10T13:39:31.402Z,15.48
2023-04-10T13:42:02.147Z,15.31
2023-04-10T13:44:28.669Z,15.19
2023-04-10T13:46:55.505Z,15.09
2023-04-10T13:49:22.216Z,15.01
2023-04-10T13:51:48.936Z,14.90
2023-04-10T13:54:17.182Z,14.75
2023-04-10T13:56:48.160Z,14.66
2023-04-10T13:59:14.635Z,14.68
2023-04-10T14:01:41.248Z,14.72
2023-04-10T14:04:08.179Z,14.72
2023-04-10T14:06:34.885Z,14.73
2023-04-10T14:09:01.335Z,14.74
2023-04-10T14:11:27.720Z,14.72
2023-04-10T14:13:54.159Z,14.66
2023-04-10T14:16:20.782Z,14.60
2023-04-10T14:18:47.667Z,14.50
2023-04-10T14:21:14.104Z,14.35
2023-04-10T14:23:42.051Z,14.17
2023-04-10T14:26:08.491Z,14.01
2023-04-10T14:28:35.136Z,13.81
2023-04-10T14:31:01.779Z,13.66
2023-04-10T14:33:28.575Z,13.54
2023-04-10T14:35:55.534Z,13.42
2023-04-10T14:38:21.926Z,13.40
2023-04-10T14:40:50.077Z,13.33
2023-04-10T14:43:17.196Z,13.31
2023-04-10T14:45:44.218Z,13.27
2023-04-10T14:48:12.671Z,13.24
2023-04-10T14:50:39.522Z,13.30
2023-04-10T14:53:06.206Z,13.32
2023-04-10T14:55:32.700Z,13.29
2023-04-10T14:57:59.152Z,13.23
2023-04-10T15:00:29.714Z,13.20
2023-04-10T15:02:59.106Z,13.19
2023-04-10T15:05:26.190Z,13.19
2023-04-10T15:07:52.737Z,13.13
2023-04-10T15:10:19.304Z,13.06
2023-04-10T15:12:45.735Z,12.96
2023-04-10T15:15:12.141Z,12.92
2023-04-10T15:17:38.621Z,12.85
2023-04-10T15:20:05.650Z,12.77
2023-04-10T15:22:32.102Z,12.66
2023-04-10T15:24:58.587Z,12.53
2023-04-10T15:27:25.074Z,12.48
2023-04-10T15:29:51.516Z,12.43
2023-04-10T15:32:18.109Z,12.38
2023-04-10T15:34:44.927Z,12.34
2023-04-10T15:37:11.809Z,12.32
2023-04-10T15:39:38.351Z,12.28
2023-04-10T15:42:06.082Z,12.25
2023-04-10T15:44:32.715Z,12.20
2023-04-10T15:46:59.126Z,12.20
2023-04-10T15:49:36.076Z,12.22
2023-04-10T15:52:03.548Z,12.26
2023-04-10T15:54:30.079Z,12.26
2023-04-10T15:56:57.414Z,12.29
2023-04-10T15:59:25.157Z,12.31
2023-04-10T16:01:51.730Z,12.31
2023-04-10T16:04:18.377Z,12.29
2023-04-10T16:06:44.844Z,12.22
2023-04-10T16:09:24.119Z,12.17
2023-04-10T16:11:52.841Z,12.16
2023-04-10T16:14:19.312Z,12.15
2023-04-10T16:16:46.003Z,12.12
2023-04-10T16:19:12.425Z,12.02
2023-04-10T16:21:38.797Z,11.95
2023-04-10T16:24:05.627Z,11.93
2023-04-10T16:26:32.009Z,11.88
2023-04-10T16:28:58.481Z,11.89
2023-04-10T16:31:25.014Z,11.86
2023-04-10T16:33:51.560Z,11.78
2023-04-10T16:36:18.000Z,11.76
2023-04-10T16:38:45.110Z,11.67
2023-04-10T16:41:12.424Z,11.61
2023-04-10T16:43:38.944Z,11.60
2023-04-10T16:46:05.799Z,11.62
2023-04-10T16:48:34.274Z,11.58
2023-04-10T16:51:06.002Z,11.52
2023-04-10T16:53:33.633Z,11.50
2023-04-10T16:56:02.931Z,11.51
2023-04-10T16:58:31.137Z,11.51
2023-04-10T17:00:57.822Z,11.46
2023-04-10T17:03:24.345Z,11.45
2023-04-10T17:05:51.227Z,11.40
2023-04-10T17:08:17.598Z,11.32
2023-04-10T17:10:43.962Z,11.28
2023-04-10T17:13:10.536Z,11.26
2023-04-10T17:15:36.957Z,11.22
2023-04-10T17:18:03.460Z,11.16
2023-04-10T17:20:30.854Z,11.15
2023-04-10T17:22:57.381Z,11.12
2023-04-10T17:25:23.845Z,11.12
2023-04-10T17:27:50.356Z,11.12
2023-04-10T17:30:16.846Z,11.09
2023-04-10T17:32:43.445Z,11.09
2023-04-10T17:35:09.987Z,11.10
2023-04-10T17:37:36.385Z,11.08
2023-04-10T17:40:02.989Z,11.04
2023-04-10T17:42:29.465Z,11.04
2023-04-10T17:44:55.922Z,11.05
2023-04-10T17:47:22.636Z,11.05
2023-04-10T17:49:48.994Z,11.06
2023-04-10T17:52:15.556Z,11.02
2023-04-10T17:54:41.989Z,11.00
2023-04-10T17:57:08.356Z,10.96
2023-04-10T17:59:34.738Z,10.93
2023-04-10T18:02:01.090Z,10.89
2023-04-10T18:04:27.619Z,10.85
2023-04-10T18:06:54.243Z,10.83
2023-04-10T18:09:20.906Z,10.81
2023-04-10T18:11:48.384Z,10.78
2023-04-10T18:14:14.730Z,10.80
2023-04-10T18:16:41.120Z,10.80
2023-04-10T18:19:07.689Z,10.80
2023-04-10T18:21:36.774Z,10.77
2023-04-10T18:24:03.808Z,10.80
2023-04-10T18:26:33.285Z,10.78
2023-04-10T18:29:00.915Z,10.78
2023-04-10T18:31:27.794Z,10.76
2023-04-10T18:34:04.139Z,10.72
2023-04-10T18:36:33.890Z,10.72
2023-04-10T18:39:00.376Z,10.70
2023-04-10T18:41:26.773Z,10.69
2023-04-10T18:44:01.770Z,10.69
2023-04-10T18:46:32.321Z,10.65
2023-04-10T18:48:59.144Z,10.64
2023-04-10T18:51:26.422Z,10.64
2023-04-10T18:53:53.248Z,10.62
2023-04-10T18:56:20.032Z,10.61
2023-04-10T18:58:48.291Z,10.60
2023-04-10T19:01:17.745Z,10.61
2023-04-10T19:03:48.389Z,10.61
2023-04-10T19:06:17.650Z,10.61
2023-04-10T19:08:43.995Z,10.61
2023-04-10T19:11:10.409Z,10.64
2023-04-10T19:13:36.773Z,10.62
2023-04-10T19:16:04.405Z,10.63
2023-04-10T19:18:31.249Z,10.63
2023-04-10T19:20:59.317Z,10.61
2023-04-10T19:23:26.131Z,10.59
2023-04-10T19:25:54.033Z,10.60
2023-04-10T19:28:21.205Z,10.60
2023-04-10T19:30:47.923Z,10.59
2023-04-10T19:33:14.363Z,10.56
2023-04-10T19:35:40.902Z,10.57
2023-04-10T19:38:07.312Z,10.59
2023-04-10T19:40:33.732Z,10.58
2023-04-10T19:43:01.832Z,10.62
2023-04-10T19:45:29.418Z,10.62
2023-04-10T19:47:56.867Z,10.57
2023-04-10T19:50:23.888Z,10.48
2023-04-10T19:52:51.351Z,10.42
2023-04-10T19:55:19.098Z,10.35
2023-04-10T19:57:45.878Z,10.29
2023-04-10T20:00:12.842Z,10.26
2023-04-10T20:02:40.183Z,10.26
2023-04-10T20:05:07.193Z,10.28
2023-04-10T20:07:33.621Z,10.28
2023-04-10T20:10:02.609Z,10.26
2023-04-10T20:12:34.955Z,10.26
2023-04-10T20:15:02.998Z,10.29
2023-04-10T20:17:29.789Z,10.31
2023-04-10T20:19:57.224Z,10.32
2023-04-10T20:22:23.760Z,10.33
2023-04-10T20:24:50.148Z,10.32
2023-04-10T20:27:16.603Z,10.31
2023-04-10T20:29:43.308Z,10.32
2023-04-10T20:32:09.809Z,10.30
2023-04-10T20:34:36.736Z,10.29
2023-04-10T20:37:03.482Z,10.30
2023-04-10T20:39:29.899Z,10.28
2023-04-10T20:41:57.329Z,10.31
2023-04-10T20:44:23.861Z,10.30
2023-04-10T20:46:50.791Z,10.30
2023-04-10T20:49:17.577Z,10.28
2023-04-10T20:51:44.291Z,10.25
2023-04-10T20:54:11.726Z,10.22
2023-04-10T20:56:43.461Z,10.18
2023-04-10T20:59:11.197Z,10.12
2023-04-10T21:01:37.991Z,10.04
2023-04-10T21:04:04.867Z,10.01
2023-04-10T21:06:34.753Z,9.97
2023-04-10T21:09:01.348Z,9.94
2023-04-10T21:11:27.961Z,9.89
2023-04-10T21:13:54.499Z,9.88
2023-04-10T21:16:21.086Z,9.88
2023-04-10T21:18:47.939Z,9.87
2023-04-10T21:21:14.610Z,9.89
2023-04-10T21:23:41.188Z,9.88
2023-04-10T21:26:07.732Z,9.89
2023-04-10T21:28:34.260Z,9.89
2023-04-10T21:31:00.811Z,9.89
2023-04-10T21:33:27.327Z,9.90
2023-04-10T21:35:53.865Z,9.91
2023-04-10T21:38:20.399Z,9.91
2023-04-10T21:40:51.241Z,9.91
2023-04-10T21:43:17.752Z,9.93
2023-04-10T21:45:44.166Z,9.92
2023-04-10T21:48:10.751Z,9.91
2023-04-10T21:50:37.226Z,9.91
2023-04-10T21:53:03.822Z,9.91
2023-04-10T21:55:30.219Z,9.91
2023-04-10T21:57:57.107Z,9.90
2023-04-10T22:00:23.671Z,9.90
2023-04-10T22:02:50.833Z,9.88
2023-04-10T22:05:17.425Z,9.87
2023-04-10T22:07:43.847Z,9.87
2023-04-10T22:10:10.402Z,9.85
2023-04-10T22:12:36.937Z,9.87
2023-04-10T22:15:03.884Z,9.85
2023-04-10T22:17:30.243Z,9.84
2023-04-10T22:19:56.688Z,9.84
2023-04-10T22:22:23.569Z,9.83
2023-04-10T22:24:50.186Z,9.80
2023-04-10T22:27:17.022Z,9.72
2023-04-10T22:29:47.533Z,9.50
2023-04-10T22:32:16.648Z,9.22
2023-04-10T22:34:43.066Z,9.01
2023-04-10T22:37:09.491Z,8.90
2023-04-10T22:39:35.922Z,8.80
2023-04-10T22:42:02.368Z,8.70
2023-04-10T22:44:28.757Z,8.65
2023-04-10T22:46:56.051Z,8.56
2023-04-10T22:49:22.608Z,8.52
2023-04-10T22:51:49.075Z,8.48
2023-04-10T22:54:16.040Z,8.45
2023-04-10T22:56:44.048Z,8.44
2023-04-10T22:59:10.858Z,8.41
2023-04-10T23:01:37.383Z,8.35
2023-04-10T23:04:03.940Z,8.26
2023-04-10T23:06:31.692Z,8.19
2023-04-10T23:08:58.205Z,8.10
2023-04-10T23:11:24.835Z,8.02
2023-04-10T23:13:51.242Z,7.96
2023-04-10T23:16:17.663Z,7.87
2023-04-10T23:18:44.104Z,7.81
2023-04-10T23:21:10.643Z,7.74
2023-04-10T23:23:37.101Z,7.71
2023-04-10T23:26:03.649Z,7.64
2023-04-10T23:28:30.134Z,7.65
2023-04-10T23:30:56.574Z,7.59
2023-04-10T23:33:22.957Z,7.55
2023-04-10T23:35:49.608Z,7.52
2023-04-10T23:38:16.052Z,7.50
2023-04-10T23:40:42.479Z,7.48
2023-04-10T23:43:08.870Z,7.47
2023-04-10T23:45:35.611Z,7.47
2023-04-10T23:48:02.152Z,7.46
2023-04-10T23:50:28.609Z,7.46
2023-04-10T23:52:55.348Z,7.45
2023-04-10T23:55:23.232Z,7.44
2023-04-10T23:57:49.605Z,7.42
